sensor_id;sensor_type;location;lat;lon;timestamp;temperature;humidity
15107;DHT22;7654;45.308;-75.096;2023-03-01T00:00:32;-0.30;99.90
15107;DHT22;7654;45.308;-75.096;2023-03-01T00:03:02;-0.30;99.90
15107;DHT22;7654;45.308;-75.096;2023-03-01T00:05:32;-0.30;99.90
15107;DHT22;7654;45.308;-75.096;2023-03-01T00:08:03;-0.30;99.90
15107;DHT22;7654;45.308;-75.096;2023-03-01T00:10:33;-0.30;99.90
15107;DHT22;7654;45.308;-75.096;2023-03-01T00:13:05;-0.20;99.90
15107;DHT22;7654;45.308;-75.096;2023-03-01T00:15:39;-0.20;99.90
15107;DHT22;7654;45.308;-75.096;2023-03-01T00:18:09;-0.20;99.90
15107;DHT22;7654;45.308;-75.096;2023-03-01T00:20:40;-0.20;99.90
15107;DHT22;7654;45.308;-75.096;2023-03-01T00:23:10;-0.20;99.90
15107;DHT22;7654;45.308;-75.096;2023-03-01T00:25:42;-0.20;99.90
15107;DHT22;7654;45.308;-75.096;2023-03-01T00:28:14;-0.20;99.90
15107;DHT22;7654;45.308;-75.096;2023-03-01T00:30:44;-0.20;99.90
15107;DHT22;7654;45.308;-75.096;2023-03-01T00:33:14;-0.20;99.90
15107;DHT22;7654;45.308;-75.096;2023-03-01T00:35:46;-0.20;99.90
15107;DHT22;7654;45.308;-75.096;2023-03-01T00:38:16;-0.20;99.90
15107;DHT22;7654;45.308;-75.096;2023-03-01T00:40:46;-0.10;99.90
15107;DHT22;7654;45.308;-75.096;2023-03-01T00:43:18;-0.10;99.90
15107;DHT22;7654;45.308;-75.096;2023-03-01T00:45:48;-0.10;99.90
15107;DHT22;7654;45.308;-75.096;2023-03-01T00:48:19;-0.10;99.90
15107;DHT22;7654;45.308;-75.096;2023-03-01T00:50:49;-0.10;99.90
15107;DHT22;7654;45.308;-75.096;2023-03-01T00:53:19;-0.20;99.90
15107;DHT22;7654;45.308;-75.096;2023-03-01T00:55:49;-0.20;99.90
15107;DHT22;7654;45.308;-75.096;2023-03-01T00:58:21;-0.10;99.90
15107;DHT22;7654;45.308;-75.096;2023-03-01T01:00:51;-0.20;99.90
15107;DHT22;7654;45.308;-75.096;2023-03-01T01:03:23;-0.10;99.90
15107;DHT22;7654;45.308;-75.096;2023-03-01T01:05:55;-0.10;99.90
15107;DHT22;7654;45.308;-75.096;2023-03-01T01:08:25;-0.10;99.90
15107;DHT22;7654;45.308;-75.096;2023-03-01T01:10:55;-0.10;99.90
15107;DHT22;7654;45.308;-75.096;2023-03-01T01:13:27;0.00;99.90
15107;DHT22;7654;45.308;-75.096;2023-03-01T01:16:01;0.00;99.90
15107;DHT22;7654;45.308;-75.096;2023-03-01T01:18:31;0.00;99.90
15107;DHT22;7654;45.308;-75.096;2023-03-01T01:21:06;0.00;99.90
15107;DHT22;7654;45.308;-75.096;2023-03-01T01:23:37;0.00;99.90
15107;DHT22;7654;45.308;-75.096;2023-03-01T01:26:09;0.10;99.90
15107;DHT22;7654;45.308;-75.096;2023-03-01T01:28:41;0.00;99.90
15107;DHT22;7654;45.308;-75.096;2023-03-01T01:31:11;0.00;99.90
15107;DHT22;7654;45.308;-75.096;2023-03-01T01:33:41;-0.10;99.90
15107;DHT22;7654;45.308;-75.096;2023-03-01T01:36:14;-0.10;99.90
15107;DHT22;7654;45.308;-75.096;2023-03-01T01:38:45;-0.10;99.90
15107;DHT22;7654;45.308;-75.096;2023-03-01T01:41:16;-0.10;99.90
15107;DHT22;7654;45.308;-75.096;2023-03-01T01:43:49;-0.10;99.90
15107;DHT22;7654;45.308;-75.096;2023-03-01T01:46:27;-0.10;99.90
15107;DHT22;7654;45.308;-75.096;2023-03-01T01:49:01;0.00;99.90
15107;DHT22;7654;45.308;-75.096;2023-03-01T01:51:35;0.00;99.90
15107;DHT22;7654;45.308;-75.096;2023-03-01T01:54:10;0.00;99.90
15107;DHT22;7654;45.308;-75.096;2023-03-01T01:56:43;0.10;99.90
15107;DHT22;7654;45.308;-75.096;2023-03-01T01:59:16;0.10;99.90
15107;DHT22;7654;45.308;-75.096;2023-03-01T02:01:49;0.10;99.90
15107;DHT22;7654;45.308;-75.096;2023-03-01T02:04:20;0.10;99.90
15107;DHT22;7654;45.308;-75.096;2023-03-01T02:06:55;0.10;99.90
15107;DHT22;7654;45.308;-75.096;2023-03-01T02:09:28;0.20;99.90
15107;DHT22;7654;45.308;-75.096;2023-03-01T02:12:00;0.20;99.90
15107;DHT22;7654;45.308;-75.096;2023-03-01T02:14:33;0.20;99.90
15107;DHT22;7654;45.308;-75.096;2023-03-01T02:17:03;0.20;99.90
15107;DHT22;7654;45.308;-75.096;2023-03-01T02:19:46;0.20;99.90
15107;DHT22;7654;45.308;-75.096;2023-03-01T02:22:24;0.20;99.90
15107;DHT22;7654;45.308;-75.096;2023-03-01T02:25:05;0.10;99.90
15107;DHT22;7654;45.308;-75.096;2023-03-01T02:27:44;0.10;99.90
15107;DHT22;7654;45.308;-75.096;2023-03-01T02:30:19;0.10;99.90
15107;DHT22;7654;45.308;-75.096;2023-03-01T02:32:50;0.10;99.90
15107;DHT22;7654;45.308;-75.096;2023-03-01T02:35:20;0.00;99.90
15107;DHT22;7654;45.308;-75.096;2023-03-01T02:37:51;-0.20;99.90
15107;DHT22;7654;45.308;-75.096;2023-03-01T02:40:25;-0.30;99.90
15107;DHT22;7654;45.308;-75.096;2023-03-01T02:42:59;-0.40;99.90
15107;DHT22;7654;45.308;-75.096;2023-03-01T02:45:30;-0.50;99.90
15107;DHT22;7654;45.308;-75.096;2023-03-01T02:48:01;-0.50;99.90
15107;DHT22;7654;45.308;-75.096;2023-03-01T02:50:51;-0.60;99.90
15107;DHT22;7654;45.308;-75.096;2023-03-01T02:53:27;-0.60;99.90
15107;DHT22;7654;45.308;-75.096;2023-03-01T02:56:01;-0.70;99.90
15107;DHT22;7654;45.308;-75.096;2023-03-01T02:58:31;-0.80;99.90
15107;DHT22;7654;45.308;-75.096;2023-03-01T03:01:10;-0.90;99.90
15107;DHT22;7654;45.308;-75.096;2023-03-01T03:03:42;-0.90;99.90
15107;DHT22;7654;45.308;-75.096;2023-03-01T03:06:13;-1.00;99.90
15107;DHT22;7654;45.308;-75.096;2023-03-01T03:08:43;-1.10;99.90
15107;DHT22;7654;45.308;-75.096;2023-03-01T03:11:14;-1.10;99.90
15107;DHT22;7654;45.308;-75.096;2023-03-01T03:13:44;-1.10;99.90
15107;DHT22;7654;45.308;-75.096;2023-03-01T03:16:17;-1.10;99.90
15107;DHT22;7654;45.308;-75.096;2023-03-01T03:18:48;-1.10;99.90
15107;DHT22;7654;45.308;-75.096;2023-03-01T03:21:18;-1.00;99.90
15107;DHT22;7654;45.308;-75.096;2023-03-01T03:23:49;-1.00;99.90
15107;DHT22;7654;45.308;-75.096;2023-03-01T03:26:19;-0.90;99.90
15107;DHT22;7654;45.308;-75.096;2023-03-01T03:28:49;-0.90;99.90
15107;DHT22;7654;45.308;-75.096;2023-03-01T03:31:20;-0.90;99.90
15107;DHT22;7654;45.308;-75.096;2023-03-01T03:33:51;-0.80;99.90
15107;DHT22;7654;45.308;-75.096;2023-03-01T03:36:23;-0.80;99.90
15107;DHT22;7654;45.308;-75.096;2023-03-01T03:38:53;-0.80;99.90
15107;DHT22;7654;45.308;-75.096;2023-03-01T03:41:23;-0.80;99.90
15107;DHT22;7654;45.308;-75.096;2023-03-01T03:43:53;-0.80;99.90
15107;DHT22;7654;45.308;-75.096;2023-03-01T03:46:25;-0.80;99.90
15107;DHT22;7654;45.308;-75.096;2023-03-01T03:48:55;-0.80;99.90
15107;DHT22;7654;45.308;-75.096;2023-03-01T03:51:26;-0.80;99.90
15107;DHT22;7654;45.308;-75.096;2023-03-01T03:53:56;-0.70;99.90
15107;DHT22;7654;45.308;-75.096;2023-03-01T03:56:26;-0.70;99.90
15107;DHT22;7654;45.308;-75.096;2023-03-01T03:58:57;-0.70;99.90
15107;DHT22;7654;45.308;-75.096;2023-03-01T04:01:28;-0.80;99.90
15107;DHT22;7654;45.308;-75.096;2023-03-01T04:03:59;-0.80;99.90
15107;DHT22;7654;45.308;-75.096;2023-03-01T04:06:32;-0.90;99.90
15107;DHT22;7654;45.308;-75.096;2023-03-01T04:09:02;-0.90;99.90
15107;DHT22;7654;45.308;-75.096;2023-03-01T04:11:32;-0.90;99.90
15107;DHT22;7654;45.308;-75.096;2023-03-01T04:14:02;-1.00;99.90
15107;DHT22;7654;45.308;-75.096;2023-03-01T04:16:34;-1.00;99.90
15107;DHT22;7654;45.308;-75.096;2023-03-01T04:19:04;-1.00;99.90
15107;DHT22;7654;45.308;-75.096;2023-03-01T04:21:34;-1.10;99.90
15107;DHT22;7654;45.308;-75.096;2023-03-01T04:24:06;-1.20;99.90
15107;DHT22;7654;45.308;-75.096;2023-03-01T04:26:37;-1.30;99.90
15107;DHT22;7654;45.308;-75.096;2023-03-01T04:29:07;-1.30;99.90
15107;DHT22;7654;45.308;-75.096;2023-03-01T04:31:39;-1.40;99.90
15107;DHT22;7654;45.308;-75.096;2023-03-01T04:34:10;-1.50;99.90
15107;DHT22;7654;45.308;-75.096;2023-03-01T04:36:42;-1.60;99.90
15107;DHT22;7654;45.308;-75.096;2023-03-01T04:39:12;-1.60;99.90
15107;DHT22;7654;45.308;-75.096;2023-03-01T04:41:42;-1.70;99.90
15107;DHT22;7654;45.308;-75.096;2023-03-01T04:44:12;-1.80;99.90
15107;DHT22;7654;45.308;-75.096;2023-03-01T04:46:44;-1.80;99.90
15107;DHT22;7654;45.308;-75.096;2023-03-01T04:49:14;-1.80;99.90
15107;DHT22;7654;45.308;-75.096;2023-03-01T04:51:45;-1.90;99.90
15107;DHT22;7654;45.308;-75.096;2023-03-01T04:54:15;-1.90;99.90
15107;DHT22;7654;45.308;-75.096;2023-03-01T04:56:45;-1.90;99.90
15107;DHT22;7654;45.308;-75.096;2023-03-01T04:59:15;-1.90;99.90
15107;DHT22;7654;45.308;-75.096;2023-03-01T05:01:47;-2.00;99.90
15107;DHT22;7654;45.308;-75.096;2023-03-01T05:04:18;-1.90;99.90
15107;DHT22;7654;45.308;-75.096;2023-03-01T05:06:48;-1.90;99.90
15107;DHT22;7654;45.308;-75.096;2023-03-01T05:09:18;-2.00;99.90
15107;DHT22;7654;45.308;-75.096;2023-03-01T05:11:48;-1.90;99.90
15107;DHT22;7654;45.308;-75.096;2023-03-01T05:14:19;-1.90;99.90
15107;DHT22;7654;45.308;-75.096;2023-03-01T05:16:51;-1.90;99.90
15107;DHT22;7654;45.308;-75.096;2023-03-01T05:19:21;-1.90;99.90
15107;DHT22;7654;45.308;-75.096;2023-03-01T05:21:51;-1.90;99.90
15107;DHT22;7654;45.308;-75.096;2023-03-01T05:24:35;-1.90;99.90
15107;DHT22;7654;45.308;-75.096;2023-03-01T05:27:06;-1.90;99.90
15107;DHT22;7654;45.308;-75.096;2023-03-01T05:29:36;-2.00;99.90
15107;DHT22;7654;45.308;-75.096;2023-03-01T05:32:09;-2.00;99.90
15107;DHT22;7654;45.308;-75.096;2023-03-01T05:34:43;-2.00;99.90
15107;DHT22;7654;45.308;-75.096;2023-03-01T05:37:15;-2.00;99.90
15107;DHT22;7654;45.308;-75.096;2023-03-01T05:39:45;-1.90;99.90
15107;DHT22;7654;45.308;-75.096;2023-03-01T05:42:17;-1.90;99.90
15107;DHT22;7654;45.308;-75.096;2023-03-01T05:44:47;-1.80;99.90
15107;DHT22;7654;45.308;-75.096;2023-03-01T05:47:20;-1.70;99.90
15107;DHT22;7654;45.308;-75.096;2023-03-01T05:49:50;-1.60;99.90
15107;DHT22;7654;45.308;-75.096;2023-03-01T05:52:20;-1.50;99.90
15107;DHT22;7654;45.308;-75.096;2023-03-01T05:54:50;-1.50;99.90
15107;DHT22;7654;45.308;-75.096;2023-03-01T05:57:20;-1.40;99.90
15107;DHT22;7654;45.308;-75.096;2023-03-01T06:03:37;-1.40;99.90
15107;DHT22;7654;45.308;-75.096;2023-03-01T06:06:07;-1.40;99.90
15107;DHT22;7654;45.308;-75.096;2023-03-01T06:08:37;-1.40;99.90
15107;DHT22;7654;45.308;-75.096;2023-03-01T06:11:07;-1.40;99.90
15107;DHT22;7654;45.308;-75.096;2023-03-01T06:13:37;-1.30;99.90
15107;DHT22;7654;45.308;-75.096;2023-03-01T06:16:09;-1.40;99.90
15107;DHT22;7654;45.308;-75.096;2023-03-01T06:18:41;-1.50;99.90
15107;DHT22;7654;45.308;-75.096;2023-03-01T06:21:12;-1.50;99.90
15107;DHT22;7654;45.308;-75.096;2023-03-01T06:23:42;-1.50;99.90
15107;DHT22;7654;45.308;-75.096;2023-03-01T06:26:12;-1.50;99.90
15107;DHT22;7654;45.308;-75.096;2023-03-01T06:28:42;-1.60;99.90
15107;DHT22;7654;45.308;-75.096;2023-03-01T06:31:14;-1.70;99.90
15107;DHT22;7654;45.308;-75.096;2023-03-01T06:33:46;-1.80;99.90
15107;DHT22;7654;45.308;-75.096;2023-03-01T06:36:17;-2.00;99.90
15107;DHT22;7654;45.308;-75.096;2023-03-01T06:38:49;-2.10;99.90
15107;DHT22;7654;45.308;-75.096;2023-03-01T06:41:19;-2.20;99.90
15107;DHT22;7654;45.308;-75.096;2023-03-01T06:43:49;-2.40;99.90
15107;DHT22;7654;45.308;-75.096;2023-03-01T06:46:19;-2.50;99.90
15107;DHT22;7654;45.308;-75.096;2023-03-01T06:48:51;-2.60;99.90
15107;DHT22;7654;45.308;-75.096;2023-03-01T06:51:21;-2.70;99.90
15107;DHT22;7654;45.308;-75.096;2023-03-01T06:53:51;-2.80;99.90
15107;DHT22;7654;45.308;-75.096;2023-03-01T06:56:21;-2.90;99.90
15107;DHT22;7654;45.308;-75.096;2023-03-01T06:58:51;-3.00;99.90
15107;DHT22;7654;45.308;-75.096;2023-03-01T07:01:21;-3.10;99.90
15107;DHT22;7654;45.308;-75.096;2023-03-01T07:03:53;-3.20;99.90
15107;DHT22;7654;45.308;-75.096;2023-03-01T07:06:23;-3.30;99.90
15107;DHT22;7654;45.308;-75.096;2023-03-01T07:08:53;-3.30;99.90
15107;DHT22;7654;45.308;-75.096;2023-03-01T07:11:23;-3.30;99.90
15107;DHT22;7654;45.308;-75.096;2023-03-01T07:13:54;-3.30;99.90
15107;DHT22;7654;45.308;-75.096;2023-03-01T07:16:24;-3.40;99.90
15107;DHT22;7654;45.308;-75.096;2023-03-01T07:18:56;-3.50;99.90
15107;DHT22;7654;45.308;-75.096;2023-03-01T07:21:27;-3.60;99.90
15107;DHT22;7654;45.308;-75.096;2023-03-01T07:23:57;-3.60;99.90
15107;DHT22;7654;45.308;-75.096;2023-03-01T07:26:27;-3.70;99.90
15107;DHT22;7654;45.308;-75.096;2023-03-01T07:28:59;-3.80;99.90
15107;DHT22;7654;45.308;-75.096;2023-03-01T07:31:29;-3.90;99.90
15107;DHT22;7654;45.308;-75.096;2023-03-01T07:34:01;-3.90;99.90
15107;DHT22;7654;45.308;-75.096;2023-03-01T07:36:31;-4.00;99.90
15107;DHT22;7654;45.308;-75.096;2023-03-01T07:39:02;-4.00;99.90
15107;DHT22;7654;45.308;-75.096;2023-03-01T07:41:32;-3.90;99.90
15107;DHT22;7654;45.308;-75.096;2023-03-01T07:44:02;-4.00;99.90
15107;DHT22;7654;45.308;-75.096;2023-03-01T07:46:33;-4.00;99.90
15107;DHT22;7654;45.308;-75.096;2023-03-01T07:49:04;-3.90;99.90
15107;DHT22;7654;45.308;-75.096;2023-03-01T07:51:37;-3.80;99.90
15107;DHT22;7654;45.308;-75.096;2023-03-01T07:54:08;-3.90;99.90
15107;DHT22;7654;45.308;-75.096;2023-03-01T07:56:38;-3.90;99.90
15107;DHT22;7654;45.308;-75.096;2023-03-01T07:59:08;-3.90;99.90
15107;DHT22;7654;45.308;-75.096;2023-03-01T08:01:39;-3.90;99.90
15107;DHT22;7654;45.308;-75.096;2023-03-01T08:04:11;-3.90;99.90
15107;DHT22;7654;45.308;-75.096;2023-03-01T08:06:41;-3.80;99.90
15107;DHT22;7654;45.308;-75.096;2023-03-01T08:09:11;-3.80;99.90
15107;DHT22;7654;45.308;-75.096;2023-03-01T08:11:41;-3.90;99.90
15107;DHT22;7654;45.308;-75.096;2023-03-01T08:14:11;-3.90;99.90
15107;DHT22;7654;45.308;-75.096;2023-03-01T08:16:42;-4.00;99.90
15107;DHT22;7654;45.308;-75.096;2023-03-01T08:19:14;-4.00;99.90
15107;DHT22;7654;45.308;-75.096;2023-03-01T08:21:44;-4.20;99.90
15107;DHT22;7654;45.308;-75.096;2023-03-01T08:24:15;-4.20;99.90
15107;DHT22;7654;45.308;-75.096;2023-03-01T08:26:45;-4.20;99.90
15107;DHT22;7654;45.308;-75.096;2023-03-01T08:29:15;-4.20;99.90
15107;DHT22;7654;45.308;-75.096;2023-03-01T08:31:45;-4.10;99.90
15107;DHT22;7654;45.308;-75.096;2023-03-01T08:34:18;-4.00;99.90
15107;DHT22;7654;45.308;-75.096;2023-03-01T08:36:48;-4.00;99.90
15107;DHT22;7654;45.308;-75.096;2023-03-01T08:39:20;-4.00;99.90
15107;DHT22;7654;45.308;-75.096;2023-03-01T08:41:50;-3.90;99.90
15107;DHT22;7654;45.308;-75.096;2023-03-01T08:44:20;-3.90;99.90
15107;DHT22;7654;45.308;-75.096;2023-03-01T08:46:50;-3.90;99.90
15107;DHT22;7654;45.308;-75.096;2023-03-01T08:49:22;-3.90;99.90
15107;DHT22;7654;45.308;-75.096;2023-03-01T08:51:53;-3.90;99.90
15107;DHT22;7654;45.308;-75.096;2023-03-01T08:54:23;-3.90;99.90
15107;DHT22;7654;45.308;-75.096;2023-03-01T08:56:53;-3.90;99.90
15107;DHT22;7654;45.308;-75.096;2023-03-01T08:59:23;-3.90;99.90
15107;DHT22;7654;45.308;-75.096;2023-03-01T09:01:55;-3.90;99.90
15107;DHT22;7654;45.308;-75.096;2023-03-01T09:04:26;-4.00;99.90
15107;DHT22;7654;45.308;-75.096;2023-03-01T09:06:57;-3.90;99.90
15107;DHT22;7654;45.308;-75.096;2023-03-01T09:09:27;-4.00;99.90
15107;DHT22;7654;45.308;-75.096;2023-03-01T09:11:57;-3.90;99.90
15107;DHT22;7654;45.308;-75.096;2023-03-01T09:14:28;-4.00;99.90
15107;DHT22;7654;45.308;-75.096;2023-03-01T09:16:58;-3.90;99.90
15107;DHT22;7654;45.308;-75.096;2023-03-01T09:19:33;-3.80;99.90
15107;DHT22;7654;45.308;-75.096;2023-03-01T09:22:03;-3.80;99.90
15107;DHT22;7654;45.308;-75.096;2023-03-01T09:24:33;-3.80;99.90
15107;DHT22;7654;45.308;-75.096;2023-03-01T09:27:03;-3.80;99.90
15107;DHT22;7654;45.308;-75.096;2023-03-01T09:29:37;-3.70;99.90
15107;DHT22;7654;45.308;-75.096;2023-03-01T09:32:08;-3.70;99.90
15107;DHT22;7654;45.308;-75.096;2023-03-01T09:34:40;-3.70;99.90
15107;DHT22;7654;45.308;-75.096;2023-03-01T09:37:23;-3.60;99.90
15107;DHT22;7654;45.308;-75.096;2023-03-01T09:39:53;-3.60;99.90
15107;DHT22;7654;45.308;-75.096;2023-03-01T09:42:24;-3.60;99.90
15107;DHT22;7654;45.308;-75.096;2023-03-01T09:44:57;-3.50;99.90
15107;DHT22;7654;45.308;-75.096;2023-03-01T09:47:31;-3.60;99.90
15107;DHT22;7654;45.308;-75.096;2023-03-01T09:50:09;-3.60;99.90
15107;DHT22;7654;45.308;-75.096;2023-03-01T09:52:41;-3.60;99.90
15107;DHT22;7654;45.308;-75.096;2023-03-01T09:55:14;-3.50;99.90
15107;DHT22;7654;45.308;-75.096;2023-03-01T09:57:49;-3.50;99.90
15107;DHT22;7654;45.308;-75.096;2023-03-01T10:00:30;-3.50;99.90
15107;DHT22;7654;45.308;-75.096;2023-03-01T10:03:11;-3.50;99.90
15107;DHT22;7654;45.308;-75.096;2023-03-01T10:05:57;-3.50;99.90
15107;DHT22;7654;45.308;-75.096;2023-03-01T10:08:40;-3.50;99.90
15107;DHT22;7654;45.308;-75.096;2023-03-01T10:11:21;-3.60;99.90
15107;DHT22;7654;45.308;-75.096;2023-03-01T10:13:57;-3.60;99.90
15107;DHT22;7654;45.308;-75.096;2023-03-01T10:16:34;-3.70;99.90
15107;DHT22;7654;45.308;-75.096;2023-03-01T10:19:11;-3.80;99.90
15107;DHT22;7654;45.308;-75.096;2023-03-01T10:21:45;-3.80;99.90
15107;DHT22;7654;45.308;-75.096;2023-03-01T10:24:17;-3.90;99.90
15107;DHT22;7654;45.308;-75.096;2023-03-01T10:26:54;-3.90;99.90
15107;DHT22;7654;45.308;-75.096;2023-03-01T10:29:29;-4.00;99.90
15107;DHT22;7654;45.308;-75.096;2023-03-01T10:32:04;-4.10;99.90
15107;DHT22;7654;45.308;-75.096;2023-03-01T10:34:36;-4.00;99.90
15107;DHT22;7654;45.308;-75.096;2023-03-01T10:37:13;-4.10;99.90
15107;DHT22;7654;45.308;-75.096;2023-03-01T10:39:57;-4.10;99.90
15107;DHT22;7654;45.308;-75.096;2023-03-01T10:42:30;-4.10;99.90
15107;DHT22;7654;45.308;-75.096;2023-03-01T10:45:16;-4.20;99.90
15107;DHT22;7654;45.308;-75.096;2023-03-01T10:47:47;-4.20;99.90
15107;DHT22;7654;45.308;-75.096;2023-03-01T10:50:32;-4.20;99.90
15107;DHT22;7654;45.308;-75.096;2023-03-01T10:53:05;-4.20;99.90
15107;DHT22;7654;45.308;-75.096;2023-03-01T10:55:46;-4.20;99.90
15107;DHT22;7654;45.308;-75.096;2023-03-01T10:58:21;-4.40;99.90
15107;DHT22;7654;45.308;-75.096;2023-03-01T11:00:52;-4.50;99.90
15107;DHT22;7654;45.308;-75.096;2023-03-01T11:03:24;-4.60;99.90
15107;DHT22;7654;45.308;-75.096;2023-03-01T11:06:04;-4.80;99.90
15107;DHT22;7654;45.308;-75.096;2023-03-01T11:08:39;-4.90;99.90
15107;DHT22;7654;45.308;-75.096;2023-03-01T11:11:31;-5.00;99.90
15107;DHT22;7654;45.308;-75.096;2023-03-01T11:14:05;-5.10;99.90
15107;DHT22;7654;45.308;-75.096;2023-03-01T11:17:00;-5.10;99.90
15107;DHT22;7654;45.308;-75.096;2023-03-01T11:19:30;-5.20;99.90
15107;DHT22;7654;45.308;-75.096;2023-03-01T11:22:03;-5.40;99.90
15107;DHT22;7654;45.308;-75.096;2023-03-01T11:24:40;-5.50;99.90
15107;DHT22;7654;45.308;-75.096;2023-03-01T11:27:19;-5.70;99.90
15107;DHT22;7654;45.308;-75.096;2023-03-01T11:29:54;-5.90;99.90
15107;DHT22;7654;45.308;-75.096;2023-03-01T11:32:29;-6.10;99.90
15107;DHT22;7654;45.308;-75.096;2023-03-01T11:35:04;-6.30;99.90
15107;DHT22;7654;45.308;-75.096;2023-03-01T11:37:40;-6.40;99.90
15107;DHT22;7654;45.308;-75.096;2023-03-01T11:40:20;-6.50;99.90
15107;DHT22;7654;45.308;-75.096;2023-03-01T11:43:02;-6.70;99.90
15107;DHT22;7654;45.308;-75.096;2023-03-01T11:48:04;-7.00;99.90
15107;DHT22;7654;45.308;-75.096;2023-03-01T11:50:41;-7.00;99.90
15107;DHT22;7654;45.308;-75.096;2023-03-01T11:53:33;-6.90;99.90
15107;DHT22;7654;45.308;-75.096;2023-03-01T11:56:20;-6.90;99.90
15107;DHT22;7654;45.308;-75.096;2023-03-01T11:59:07;-6.70;99.90
15107;DHT22;7654;45.308;-75.096;2023-03-01T12:01:55;-6.70;99.90
15107;DHT22;7654;45.308;-75.096;2023-03-01T12:04:45;-6.70;99.90
15107;DHT22;7654;45.308;-75.096;2023-03-01T12:07:23;-6.70;99.90
15107;DHT22;7654;45.308;-75.096;2023-03-01T12:10:17;-6.70;99.90
15107;DHT22;7654;45.308;-75.096;2023-03-01T12:15:55;-6.70;99.90
15107;DHT22;7654;45.308;-75.096;2023-03-01T12:18:50;-6.70;99.90
15107;DHT22;7654;45.308;-75.096;2023-03-01T12:21:38;-6.60;99.90
15107;DHT22;7654;45.308;-75.096;2023-03-01T12:24:22;-6.50;99.90
15107;DHT22;7654;45.308;-75.096;2023-03-01T12:27:10;-6.50;99.90
15107;DHT22;7654;45.308;-75.096;2023-03-01T12:29:46;-6.50;99.90
15107;DHT22;7654;45.308;-75.096;2023-03-01T12:32:34;-6.50;99.90
15107;DHT22;7654;45.308;-75.096;2023-03-01T12:38:32;-6.50;99.90
15107;DHT22;7654;45.308;-75.096;2023-03-01T12:41:18;-6.40;99.90
15107;DHT22;7654;45.308;-75.096;2023-03-01T12:44:07;-6.40;99.90
15107;DHT22;7654;45.308;-75.096;2023-03-01T12:46:52;-6.30;99.90
15107;DHT22;7654;45.308;-75.096;2023-03-01T12:49:31;-6.20;99.90
15107;DHT22;7654;45.308;-75.096;2023-03-01T12:52:11;-6.10;99.90
15107;DHT22;7654;45.308;-75.096;2023-03-01T12:54:46;-6.10;99.90
15107;DHT22;7654;45.308;-75.096;2023-03-01T12:57:25;-6.00;99.90
15107;DHT22;7654;45.308;-75.096;2023-03-01T13:00:17;-5.90;99.90
15107;DHT22;7654;45.308;-75.096;2023-03-01T13:02:58;-5.70;99.90
15107;DHT22;7654;45.308;-75.096;2023-03-01T13:05:37;-5.60;99.90
15107;DHT22;7654;45.308;-75.096;2023-03-01T13:08:15;-5.50;99.90
15107;DHT22;7654;45.308;-75.096;2023-03-01T13:10:53;-5.30;99.90
15107;DHT22;7654;45.308;-75.096;2023-03-01T13:13:26;-5.20;99.90
15107;DHT22;7654;45.308;-75.096;2023-03-01T13:15:57;-5.00;99.90
15107;DHT22;7654;45.308;-75.096;2023-03-01T13:18:47;-4.90;99.90
15107;DHT22;7654;45.308;-75.096;2023-03-01T13:21:30;-4.70;99.90
15107;DHT22;7654;45.308;-75.096;2023-03-01T13:24:01;-4.50;99.90
15107;DHT22;7654;45.308;-75.096;2023-03-01T13:29:51;-4.00;99.90
15107;DHT22;7654;45.308;-75.096;2023-03-01T13:32:23;-3.80;99.90
15107;DHT22;7654;45.308;-75.096;2023-03-01T13:38:44;-3.40;99.90
15107;DHT22;7654;45.308;-75.096;2023-03-01T13:41:15;-3.00;99.90
15107;DHT22;7654;45.308;-75.096;2023-03-01T13:43:47;-2.70;99.90
15107;DHT22;7654;45.308;-75.096;2023-03-01T13:46:20;-2.50;99.90
15107;DHT22;7654;45.308;-75.096;2023-03-01T13:48:53;-2.20;99.90
15107;DHT22;7654;45.308;-75.096;2023-03-01T13:51:26;-1.90;99.90
15107;DHT22;7654;45.308;-75.096;2023-03-01T13:53:58;-1.70;99.90
15107;DHT22;7654;45.308;-75.096;2023-03-01T13:56:35;-1.60;99.90
15107;DHT22;7654;45.308;-75.096;2023-03-01T13:59:14;-1.50;99.90
15107;DHT22;7654;45.308;-75.096;2023-03-01T14:01:52;-1.30;99.90
15107;DHT22;7654;45.308;-75.096;2023-03-01T14:04:25;-0.90;99.90
15107;DHT22;7654;45.308;-75.096;2023-03-01T14:07:10;-0.90;99.90
15107;DHT22;7654;45.308;-75.096;2023-03-01T14:09:43;-1.00;99.90
15107;DHT22;7654;45.308;-75.096;2023-03-01T14:12:31;-1.10;99.90
15107;DHT22;7654;45.308;-75.096;2023-03-01T14:15:08;-1.00;99.90
15107;DHT22;7654;45.308;-75.096;2023-03-01T14:17:52;-0.90;99.90
15107;DHT22;7654;45.308;-75.096;2023-03-01T14:20:25;-0.70;99.90
15107;DHT22;7654;45.308;-75.096;2023-03-01T14:22:59;-0.70;99.90
15107;DHT22;7654;45.308;-75.096;2023-03-01T14:25:33;-0.60;99.90
15107;DHT22;7654;45.308;-75.096;2023-03-01T14:28:14;-0.50;99.90
15107;DHT22;7654;45.308;-75.096;2023-03-01T14:30:47;-0.30;99.90
15107;DHT22;7654;45.308;-75.096;2023-03-01T14:33:21;-0.10;99.90
15107;DHT22;7654;45.308;-75.096;2023-03-01T14:35:59;0.10;99.90
15107;DHT22;7654;45.308;-75.096;2023-03-01T14:38:32;0.50;99.90
15107;DHT22;7654;45.308;-75.096;2023-03-01T14:41:05;0.90;99.90
15107;DHT22;7654;45.308;-75.096;2023-03-01T14:43:37;1.20;99.90
15107;DHT22;7654;45.308;-75.096;2023-03-01T14:46:17;1.50;99.90
15107;DHT22;7654;45.308;-75.096;2023-03-01T14:48:50;1.80;99.90
15107;DHT22;7654;45.308;-75.096;2023-03-01T14:51:21;1.90;99.90
15107;DHT22;7654;45.308;-75.096;2023-03-01T14:53:51;2.20;99.90
15107;DHT22;7654;45.308;-75.096;2023-03-01T14:56:21;2.40;99.90
15107;DHT22;7654;45.308;-75.096;2023-03-01T14:58:58;2.60;99.90
15107;DHT22;7654;45.308;-75.096;2023-03-01T15:01:30;2.40;99.90
15107;DHT22;7654;45.308;-75.096;2023-03-01T15:04:00;2.10;99.90
15107;DHT22;7654;45.308;-75.096;2023-03-01T15:06:31;2.00;99.90
15107;DHT22;7654;45.308;-75.096;2023-03-01T15:09:02;1.70;99.90
15107;DHT22;7654;45.308;-75.096;2023-03-01T15:11:33;1.70;99.90
15107;DHT22;7654;45.308;-75.096;2023-03-01T15:14:26;1.60;99.90
15107;DHT22;7654;45.308;-75.096;2023-03-01T15:16:58;2.00;99.90
15107;DHT22;7654;45.308;-75.096;2023-03-01T15:19:28;2.00;99.90
15107;DHT22;7654;45.308;-75.096;2023-03-01T15:21:58;2.10;99.90
15107;DHT22;7654;45.308;-75.096;2023-03-01T15:24:40;2.50;99.90
15107;DHT22;7654;45.308;-75.096;2023-03-01T15:27:15;2.60;99.90
15107;DHT22;7654;45.308;-75.096;2023-03-01T15:29:51;2.50;99.90
15107;DHT22;7654;45.308;-75.096;2023-03-01T15:32:29;2.80;99.90
15107;DHT22;7654;45.308;-75.096;2023-03-01T15:35:01;3.30;99.90
15107;DHT22;7654;45.308;-75.096;2023-03-01T15:37:51;3.60;99.90
15107;DHT22;7654;45.308;-75.096;2023-03-01T15:40:22;3.90;99.90
15107;DHT22;7654;45.308;-75.096;2023-03-01T15:42:59;4.20;99.90
15107;DHT22;7654;45.308;-75.096;2023-03-01T15:45:31;4.50;99.90
15107;DHT22;7654;45.308;-75.096;2023-03-01T15:48:17;4.60;99.90
15107;DHT22;7654;45.308;-75.096;2023-03-01T15:50:54;4.70;99.90
15107;DHT22;7654;45.308;-75.096;2023-03-01T15:53:27;4.80;99.90
15107;DHT22;7654;45.308;-75.096;2023-03-01T15:55:57;4.80;99.90
15107;DHT22;7654;45.308;-75.096;2023-03-01T15:58:28;5.00;99.90
15107;DHT22;7654;45.308;-75.096;2023-03-01T16:01:00;5.20;99.90
15107;DHT22;7654;45.308;-75.096;2023-03-01T16:03:32;5.30;99.90
15107;DHT22;7654;45.308;-75.096;2023-03-01T16:06:02;5.20;99.90
15107;DHT22;7654;45.308;-75.096;2023-03-01T16:08:32;5.10;99.90
15107;DHT22;7654;45.308;-75.096;2023-03-01T16:11:03;5.20;99.90
15107;DHT22;7654;45.308;-75.096;2023-03-01T16:13:33;5.20;99.90
15107;DHT22;7654;45.308;-75.096;2023-03-01T16:16:04;5.30;99.90